sensor_id;sensor_type;location;lat;lon;timestamp;pressure;altitude;pressure_sealevel;temperature;humidity
20455;BME280;10386;54.314;10.022;2023-01-30T00:01:24;99917.84;;;6.17;100.00
20455;BME280;10386;54.314;10.022;2023-01-30T00:03:51;99899.53;;;6.22;100.00
20455;BME280;10386;54.314;10.022;2023-01-30T00:06:18;99885.41;;;6.18;100.00
20455;BME280;10386;54.314;10.022;2023-01-30T00:08:45;99874.75;;;6.17;100.00
20455;BME280;10386;54.314;10.022;2023-01-30T00:11:14;99876.34;;;6.19;100.00
20455;BME280;10386;54.314;10.022;2023-01-30T00:13:42;99852.00;;;6.21;100.00
20455;BME280;10386;54.314;10.022;2023-01-30T00:16:09;99828.50;;;6.23;100.00
20455;BME280;10386;54.314;10.022;2023-01-30T00:18:38;99827.84;;;6.19;100.00
20455;BME280;10386;54.314;10.022;2023-01-30T00:21:07;99827.00;;;6.19;100.00
20455;BME280;10386;54.314;10.022;2023-01-30T00:23:35;99835.09;;;6.19;100.00
20455;BME280;10386;54.314;10.022;2023-01-30T00:26:03;99824.94;;;6.22;100.00
20455;BME280;10386;54.314;10.022;2023-01-30T00:28:30;99823.34;;;6.20;100.00
20455;BME280;10386;54.314;10.022;2023-01-30T00:30:57;99828.81;;;6.18;100.00
20455;BME280;10386;54.314;10.022;2023-01-30T00:33:25;99817.28;;;6.16;100.00
20455;BME280;10386;54.314;10.022;2023-01-30T00:35:54;99801.34;;;6.13;100.00
20455;BME280;10386;54.314;10.022;2023-01-30T00:38:22;99795.94;;;6.13;100.00
20455;BME280;10386;54.314;10.022;2023-01-30T00:40:49;99797.78;;;6.13;100.00
20455;BME280;10386;54.314;10.022;2023-01-30T00:43:18;99788.53;;;6.17;100.00
20455;BME280;10386;54.314;10.022;2023-01-30T00:46:11;99776.78;;;6.18;100.00
20455;BME280;10386;54.314;10.022;2023-01-30T00:48:58;99785.72;;;6.18;100.00
20455;BME280;10386;54.314;10.022;2023-01-30T00:51:25;99772.38;;;6.17;100.00
20455;BME280;10386;54.314;10.022;2023-01-30T00:53:52;99760.41;;;6.21;100.00
20455;BME280;10386;54.314;10.022;2023-01-30T00:56:18;99748.66;;;6.22;100.00
20455;BME280;10386;54.314;10.022;2023-01-30T00:58:45;99730.63;;;6.22;100.00
20455;BME280;10386;54.314;10.022;2023-01-30T01:01:12;99742.28;;;6.23;100.00
20455;BME280;10386;54.314;10.022;2023-01-30T01:03:38;99719.00;;;6.22;100.00
20455;BME280;10386;54.314;10.022;2023-01-30T01:06:05;99715.34;;;6.23;100.00
20455;BME280;10386;54.314;10.022;2023-01-30T01:08:35;99710.50;;;6.28;100.00
20455;BME280;10386;54.314;10.022;2023-01-30T01:11:02;99699.81;;;6.26;100.00
20455;BME280;10386;54.314;10.022;2023-01-30T01:13:29;99676.31;;;6.28;100.00
20455;BME280;10386;54.314;10.022;2023-01-30T01:15:56;99682.78;;;6.26;100.00
20455;BME280;10386;54.314;10.022;2023-01-30T01:18:22;99666.41;;;6.29;100.00
20455;BME280;10386;54.314;10.022;2023-01-30T01:20:50;99658.53;;;6.26;100.00
20455;BME280;10386;54.314;10.022;2023-01-30T01:23:17;99647.63;;;6.27;100.00
20455;BME280;10386;54.314;10.022;2023-01-30T01:25:44;99642.66;;;6.34;100.00
20455;BME280;10386;54.314;10.022;2023-01-30T01:28:11;99653.66;;;6.31;100.00
20455;BME280;10386;54.314;10.022;2023-01-30T01:30:37;99631.88;;;6.34;100.00
20455;BME280;10386;54.314;10.022;2023-01-30T01:33:04;99629.19;;;6.34;100.00
20455;BME280;10386;54.314;10.022;2023-01-30T01:35:31;99622.84;;;6.35;100.00
20455;BME280;10386;54.314;10.022;2023-01-30T01:37:58;99607.31;;;6.38;100.00
20455;BME280;10386;54.314;10.022;2023-01-30T01:40:24;99592.22;;;6.36;100.00
20455;BME280;10386;54.314;10.022;2023-01-30T01:43:17;99584.88;;;6.38;100.00
20455;BME280;10386;54.314;10.022;2023-01-30T01:45:47;99575.59;;;6.42;100.00
20455;BME280;10386;54.314;10.022;2023-01-30T01:48:21;99580.88;;;6.43;100.00
20455;BME280;10386;54.314;10.022;2023-01-30T01:51:04;99559.69;;;6.50;100.00
20455;BME280;10386;54.314;10.022;2023-01-30T01:53:35;99548.06;;;6.49;100.00
20455;BME280;10386;54.314;10.022;2023-01-30T01:56:06;99531.03;;;6.49;100.00
20455;BME280;10386;54.314;10.022;2023-01-30T01:58:42;99516.22;;;6.54;100.00
20455;BME280;10386;54.314;10.022;2023-01-30T02:01:11;99510.59;;;6.57;100.00
20455;BME280;10386;54.314;10.022;2023-01-30T02:03:42;99496.03;;;6.60;100.00
20455;BME280;10386;54.314;10.022;2023-01-30T02:06:11;99502.16;;;6.62;100.00
20455;BME280;10386;54.314;10.022;2023-01-30T02:08:49;99487.69;;;6.63;100.00
20455;BME280;10386;54.314;10.022;2023-01-30T02:13:48;99468.25;;;6.70;100.00
20455;BME280;10386;54.314;10.022;2023-01-30T02:16:16;99470.56;;;6.75;100.00
20455;BME280;10386;54.314;10.022;2023-01-30T02:18:44;99465.19;;;6.75;100.00
20455;BME280;10386;54.314;10.022;2023-01-30T02:44:10;99458.06;;;6.74;100.00
20455;BME280;10386;54.314;10.022;2023-01-30T02:46:22;99471.53;;;6.63;100.00
20455;BME280;10386;54.314;10.022;2023-01-30T02:48:58;99491.47;;;6.49;100.00
20455;BME280;10386;54.314;10.022;2023-01-30T02:51:34;99503.69;;;6.42;100.00
20455;BME280;10386;54.314;10.022;2023-01-30T02:54:05;99496.91;;;6.37;100.00
20455;BME280;10386;54.314;10.022;2023-01-30T02:56:52;99489.81;;;6.36;100.00
20455;BME280;10386;54.314;10.022;2023-01-30T03:07:26;99505.72;;;6.15;100.00
20455;BME280;10386;54.314;10.022;2023-01-30T03:12:58;99495.78;;;6.05;100.00
20455;BME280;10386;54.314;10.022;2023-01-30T03:15:41;99486.28;;;5.99;100.00
20455;BME280;10386;54.314;10.022;2023-01-30T03:18:11;99479.84;;;6.02;100.00
20455;BME280;10386;54.314;10.022;2023-01-30T03:20:39;99472.59;;;6.02;100.00
20455;BME280;10386;54.314;10.022;2023-01-30T03:23:07;99475.66;;;5.98;100.00
20455;BME280;10386;54.314;10.022;2023-01-30T03:25:35;99474.34;;;5.91;100.00
20455;BME280;10386;54.314;10.022;2023-01-30T03:28:04;99460.88;;;5.91;100.00
20455;BME280;10386;54.314;10.022;2023-01-30T03:30:31;99473.59;;;5.89;100.00
20455;BME280;10386;54.314;10.022;2023-01-30T03:32:58;99483.88;;;5.84;100.00
20455;BME280;10386;54.314;10.022;2023-01-30T03:35:25;99501.63;;;5.86;100.00
20455;BME280;10386;54.314;10.022;2023-01-30T03:37:53;99499.91;;;5.85;100.00
20455;BME280;10386;54.314;10.022;2023-01-30T03:40:20;99498.59;;;5.91;100.00
20455;BME280;10386;54.314;10.022;2023-01-30T03:42:47;99502.63;;;5.85;100.00
20455;BME280;10386;54.314;10.022;2023-01-30T03:45:13;99478.75;;;5.92;100.00
20455;BME280;10386;54.314;10.022;2023-01-30T03:47:41;99481.69;;;5.89;100.00
20455;BME280;10386;54.314;10.022;2023-01-30T03:50:08;99492.38;;;5.90;100.00
20455;BME280;10386;54.314;10.022;2023-01-30T03:52:35;99486.31;;;5.87;100.00
20455;BME280;10386;54.314;10.022;2023-01-30T03:55:03;99472.34;;;5.82;100.00
20455;BME280;10386;54.314;10.022;2023-01-30T03:57:30;99465.25;;;5.81;100.00
20455;BME280;10386;54.314;10.022;2023-01-30T03:59:56;99461.16;;;5.75;100.00
20455;BME280;10386;54.314;10.022;2023-01-30T04:02:23;99467.50;;;5.74;100.00
20455;BME280;10386;54.314;10.022;2023-01-30T04:04:52;99469.31;;;5.74;100.00
20455;BME280;10386;54.314;10.022;2023-01-30T04:07:19;99483.97;;;5.70;100.00
20455;BME280;10386;54.314;10.022;2023-01-30T04:09:46;99485.94;;;5.68;100.00
20455;BME280;10386;54.314;10.022;2023-01-30T04:12:12;99483.97;;;5.70;100.00
20455;BME280;10386;54.314;10.022;2023-01-30T04:14:39;99487.66;;;5.69;100.00
20455;BME280;10386;54.314;10.022;2023-01-30T04:17:06;99483.38;;;5.66;100.00
20455;BME280;10386;54.314;10.022;2023-01-30T04:19:33;99474.19;;;5.69;100.00
20455;BME280;10386;54.314;10.022;2023-01-30T04:22:00;99475.06;;;5.57;100.00
20455;BME280;10386;54.314;10.022;2023-01-30T04:24:27;99485.97;;;5.55;100.00
20455;BME280;10386;54.314;10.022;2023-01-30T04:26:53;99473.91;;;5.48;100.00
20455;BME280;10386;54.314;10.022;2023-01-30T04:29:20;99484.88;;;5.45;100.00
20455;BME280;10386;54.314;10.022;2023-01-30T04:31:47;99486.81;;;5.43;100.00
20455;BME280;10386;54.314;10.022;2023-01-30T04:34:14;99487.69;;;5.56;100.00
20455;BME280;10386;54.314;10.022;2023-01-30T04:36:41;99490.19;;;5.47;100.00
20455;BME280;10386;54.314;10.022;2023-01-30T04:39:07;99491.88;;;5.48;100.00
20455;BME280;10386;54.314;10.022;2023-01-30T04:41:34;99503.41;;;5.50;100.00
20455;BME280;10386;54.314;10.022;2023-01-30T04:44:01;99496.31;;;5.49;100.00
20455;BME280;10386;54.314;10.022;2023-01-30T04:46:28;99501.25;;;5.42;100.00
20455;BME280;10386;54.314;10.022;2023-01-30T04:48:55;99504.38;;;5.37;100.00
20455;BME280;10386;54.314;10.022;2023-01-30T04:51:22;99501.38;;;5.41;100.00
20455;BME280;10386;54.314;10.022;2023-01-30T04:53:49;99507.50;;;5.43;100.00
20455;BME280;10386;54.314;10.022;2023-01-30T04:56:16;99507.72;;;5.40;100.00
20455;BME280;10386;54.314;10.022;2023-01-30T04:58:43;99518.72;;;5.37;100.00
20455;BME280;10386;54.314;10.022;2023-01-30T05:01:45;99532.16;;;5.37;100.00
20455;BME280;10386;54.314;10.022;2023-01-30T05:04:12;99533.44;;;5.32;100.00
20455;BME280;10386;54.314;10.022;2023-01-30T05:06:39;99532.25;;;5.36;100.00
20455;BME280;10386;54.314;10.022;2023-01-30T05:09:06;99527.75;;;5.36;100.00
20455;BME280;10386;54.314;10.022;2023-01-30T05:11:34;99547.44;;;5.37;100.00
20455;BME280;10386;54.314;10.022;2023-01-30T05:14:02;99543.69;;;5.39;100.00
20455;BME280;10386;54.314;10.022;2023-01-30T05:16:28;99535.69;;;5.38;100.00
20455;BME280;10386;54.314;10.022;2023-01-30T05:18:55;99531.19;;;5.38;100.00
20455;BME280;10386;54.314;10.022;2023-01-30T05:21:25;99537.00;;;5.32;100.00
20455;BME280;10386;54.314;10.022;2023-01-30T05:23:59;99541.00;;;5.39;100.00
20455;BME280;10386;54.314;10.022;2023-01-30T05:26:26;99546.25;;;5.40;100.00
20455;BME280;10386;54.314;10.022;2023-01-30T05:28:55;99551.84;;;5.38;100.00
20455;BME280;10386;54.314;10.022;2023-01-30T05:31:22;99550.03;;;5.38;100.00
20455;BME280;10386;54.314;10.022;2023-01-30T05:33:50;99548.19;;;5.38;100.00
20455;BME280;10386;54.314;10.022;2023-01-30T05:36:19;99557.88;;;5.41;100.00
20455;BME280;10386;54.314;10.022;2023-01-30T05:38:46;99550.44;;;5.44;100.00
20455;BME280;10386;54.314;10.022;2023-01-30T05:41:14;99560.56;;;5.41;100.00
20455;BME280;10386;54.314;10.022;2023-01-30T05:43:41;99551.19;;;5.46;100.00
20455;BME280;10386;54.314;10.022;2023-01-30T05:46:10;99556.69;;;5.57;100.00
20455;BME280;10386;54.314;10.022;2023-01-30T05:48:37;99549.03;;;5.64;100.00
20455;BME280;10386;54.314;10.022;2023-01-30T05:51:04;99553.22;;;5.68;100.00
20455;BME280;10386;54.314;10.022;2023-01-30T05:53:32;99558.81;;;5.65;100.00
20455;BME280;10386;54.314;10.022;2023-01-30T05:56:03;99580.81;;;5.59;100.00
20455;BME280;10386;54.314;10.022;2023-01-30T05:58:31;99586.94;;;5.61;100.00
20455;BME280;10386;54.314;10.022;2023-01-30T06:01:04;99592.22;;;5.62;100.00
20455;BME280;10386;54.314;10.022;2023-01-30T06:03:31;99591.69;;;5.57;100.00
20455;BME280;10386;54.314;10.022;2023-01-30T06:06:00;99597.47;;;5.51;100.00
20455;BME280;10386;54.314;10.022;2023-01-30T06:08:27;99602.97;;;5.50;100.00
20455;BME280;10386;54.314;10.022;2023-01-30T06:10:54;99603.06;;;5.48;100.00
20455;BME280;10386;54.314;10.022;2023-01-30T06:13:20;99612.25;;;5.46;100.00
20455;BME280;10386;54.314;10.022;2023-01-30T06:15:47;99609.22;;;5.50;100.00
20455;BME280;10386;54.314;10.022;2023-01-30T06:18:14;99616.97;;;5.42;100.00
20455;BME280;10386;54.314;10.022;2023-01-30T06:20:46;99610.19;;;5.49;100.00
20455;BME280;10386;54.314;10.022;2023-01-30T06:23:12;99613.44;;;5.42;100.00
20455;BME280;10386;54.314;10.022;2023-01-30T06:25:43;99621.06;;;5.48;100.00
20455;BME280;10386;54.314;10.022;2023-01-30T06:28:11;99622.13;;;5.45;100.00
20455;BME280;10386;54.314;10.022;2023-01-30T06:30:37;99612.66;;;5.52;100.00
20455;BME280;10386;54.314;10.022;2023-01-30T06:33:05;99615.78;;;5.59;100.00
20455;BME280;10386;54.314;10.022;2023-01-30T06:35:32;99622.69;;;5.63;100.00
20455;BME280;10386;54.314;10.022;2023-01-30T06:37:59;99622.25;;;5.69;100.00
20455;BME280;10386;54.314;10.022;2023-01-30T06:40:25;99630.00;;;5.61;100.00
20455;BME280;10386;54.314;10.022;2023-01-30T06:42:52;99630.22;;;5.58;100.00
20455;BME280;10386;54.314;10.022;2023-01-30T06:45:19;99646.38;;;5.58;100.00
20455;BME280;10386;54.314;10.022;2023-01-30T06:47:47;99646.25;;;5.72;100.00
20455;BME280;10386;54.314;10.022;2023-01-30T06:50:16;99655.09;;;5.74;100.00
20455;BME280;10386;54.314;10.022;2023-01-30T06:52:45;99657.38;;;5.80;100.00
20455;BME280;10386;54.314;10.022;2023-01-30T06:55:18;99662.56;;;5.83;100.00
20455;BME280;10386;54.314;10.022;2023-01-30T06:57:45;99692.28;;;5.81;100.00
20455;BME280;10386;54.314;10.022;2023-01-30T07:00:15;99682.38;;;5.82;100.00
20455;BME280;10386;54.314;10.022;2023-01-30T07:02:43;99689.38;;;5.84;100.00
20455;BME280;10386;54.314;10.022;2023-01-30T07:05:11;99703.34;;;5.77;100.00
20455;BME280;10386;54.314;10.022;2023-01-30T07:07:38;99699.28;;;5.84;100.00
20455;BME280;10386;54.314;10.022;2023-01-30T07:10:06;99702.41;;;5.78;100.00
20455;BME280;10386;54.314;10.022;2023-01-30T07:12:34;99700.97;;;5.72;100.00
20455;BME280;10386;54.314;10.022;2023-01-30T07:15:03;99707.00;;;5.76;100.00
20455;BME280;10386;54.314;10.022;2023-01-30T07:17:31;99712.38;;;5.76;100.00
20455;BME280;10386;54.314;10.022;2023-01-30T07:19:58;99731.81;;;5.81;100.00
20455;BME280;10386;54.314;10.022;2023-01-30T07:22:29;99730.31;;;5.89;100.00
20455;BME280;10386;54.314;10.022;2023-01-30T07:24:56;99730.09;;;5.92;100.00
20455;BME280;10386;54.314;10.022;2023-01-30T07:27:22;99735.06;;;5.98;100.00
20455;BME280;10386;54.314;10.022;2023-01-30T07:29:49;99751.13;;;6.00;100.00
20455;BME280;10386;54.314;10.022;2023-01-30T07:32:18;99751.13;;;6.00;100.00
20455;BME280;10386;54.314;10.022;2023-01-30T07:34:45;99755.75;;;5.98;100.00
20455;BME280;10386;54.314;10.022;2023-01-30T07:37:13;99755.00;;;6.08;100.00
20455;BME280;10386;54.314;10.022;2023-01-30T07:39:40;99768.59;;;6.07;100.00
20455;BME280;10386;54.314;10.022;2023-01-30T07:42:07;99784.00;;;6.05;100.00
20455;BME280;10386;54.314;10.022;2023-01-30T07:44:34;99781.41;;;6.03;100.00
20455;BME280;10386;54.314;10.022;2023-01-30T07:47:00;99779.25;;;6.08;100.00
20455;BME280;10386;54.314;10.022;2023-01-30T07:49:27;99772.44;;;6.15;100.00
20455;BME280;10386;54.314;10.022;2023-01-30T07:51:54;99785.28;;;6.24;100.00
20455;BME280;10386;54.314;10.022;2023-01-30T07:54:21;99783.03;;;6.31;100.00
20455;BME280;10386;54.314;10.022;2023-01-30T07:56:48;99794.78;;;6.30;100.00
20455;BME280;10386;54.314;10.022;2023-01-30T07:59:15;99797.47;;;6.30;100.00
20455;BME280;10386;54.314;10.022;2023-01-30T08:01:42;99798.44;;;6.29;100.00
20455;BME280;10386;54.314;10.022;2023-01-30T08:04:08;99805.66;;;6.28;100.00
20455;BME280;10386;54.314;10.022;2023-01-30T08:06:35;99823.53;;;6.29;100.00
20455;BME280;10386;54.314;10.022;2023-01-30T08:09:05;99843.91;;;6.33;100.00
20455;BME280;10386;54.314;10.022;2023-01-30T08:11:32;99849.44;;;6.32;100.00
20455;BME280;10386;54.314;10.022;2023-01-30T08:13:59;99854.50;;;6.24;100.00
20455;BME280;10386;54.314;10.022;2023-01-30T08:16:26;99842.19;;;6.20;100.00
20455;BME280;10386;54.314;10.022;2023-01-30T08:18:53;99858.38;;;6.20;100.00
20455;BME280;10386;54.314;10.022;2023-01-30T08:21:20;99857.81;;;6.15;100.00
20455;BME280;10386;54.314;10.022;2023-01-30T08:23:47;99848.09;;;6.12;100.00
20455;BME280;10386;54.314;10.022;2023-01-30T08:26:13;99854.59;;;6.10;100.00
20455;BME280;10386;54.314;10.022;2023-01-30T08:28:41;99866.75;;;6.03;100.00
20455;BME280;10386;54.314;10.022;2023-01-30T08:31:09;99895.63;;;6.01;100.00
20455;BME280;10386;54.314;10.022;2023-01-30T08:33:37;99894.88;;;5.99;100.00
20455;BME280;10386;54.314;10.022;2023-01-30T08:36:07;99874.16;;;5.99;100.00
20455;BME280;10386;54.314;10.022;2023-01-30T08:38:34;99883.66;;;6.05;100.00
20455;BME280;10386;54.314;10.022;2023-01-30T08:41:05;99878.16;;;6.06;100.00
20455;BME280;10386;54.314;10.022;2023-01-30T08:43:33;99915.44;;;6.00;100.00
20455;BME280;10386;54.314;10.022;2023-01-30T08:46:00;99948.66;;;5.86;100.00
20455;BME280;10386;54.314;10.022;2023-01-30T08:48:27;99941.41;;;5.60;100.00
20455;BME280;10386;54.314;10.022;2023-01-30T08:51:05;99934.03;;;5.50;100.00
20455;BME280;10386;54.314;10.022;2023-01-30T08:53:32;99931.06;;;5.27;100.00
20455;BME280;10386;54.314;10.022;2023-01-30T08:55:59;99932.19;;;5.10;100.00
20455;BME280;10386;54.314;10.022;2023-01-30T08:58:26;99930.22;;;4.98;100.00
20455;BME280;10386;54.314;10.022;2023-01-30T09:00:53;99935.13;;;5.06;100.00
20455;BME280;10386;54.314;10.022;2023-01-30T09:03:20;99919.47;;;4.98;100.00
20455;BME280;10386;54.314;10.022;2023-01-30T09:05:46;99913.13;;;4.99;100.00
20455;BME280;10386;54.314;10.022;2023-01-30T09:08:19;99910.66;;;5.10;100.00
20455;BME280;10386;54.314;10.022;2023-01-30T09:10:45;99907.47;;;5.18;100.00
20455;BME280;10386;54.314;10.022;2023-01-30T09:13:12;99891.75;;;5.38;100.00
20455;BME280;10386;54.314;10.022;2023-01-30T09:15:42;99884.91;;;5.46;100.00
20455;BME280;10386;54.314;10.022;2023-01-30T09:18:09;99869.22;;;5.53;100.00
20455;BME280;10386;54.314;10.022;2023-01-30T09:20:36;99864.00;;;5.64;100.00
20455;BME280;10386;54.314;10.022;2023-01-30T09:23:04;99873.38;;;5.71;100.00
20455;BME280;10386;54.314;10.022;2023-01-30T09:25:31;99869.44;;;5.76;100.00
20455;BME280;10386;54.314;10.022;2023-01-30T09:27:57;99877.34;;;5.79;100.00
20455;BME280;10386;54.314;10.022;2023-01-30T09:30:25;99871.84;;;5.81;100.00
20455;BME280;10386;54.314;10.022;2023-01-30T09:32:52;99871.75;;;5.82;100.00
20455;BME280;10386;54.314;10.022;2023-01-30T09:35:19;99867.88;;;5.86;100.00
20455;BME280;10386;54.314;10.022;2023-01-30T09:37:47;99868.00;;;5.97;100.00
20455;BME280;10386;54.314;10.022;2023-01-30T09:40:16;99857.56;;;6.05;100.00
20455;BME280;10386;54.314;10.022;2023-01-30T09:43:03;99856.59;;;6.06;100.00
20455;BME280;10386;54.314;10.022;2023-01-30T09:45:48;99847.47;;;6.09;100.00
20455;BME280;10386;54.314;10.022;2023-01-30T09:48:29;99838.50;;;6.08;100.00
20455;BME280;10386;54.314;10.022;2023-01-30T09:51:21;99834.22;;;6.18;100.00
20455;BME280;10386;54.314;10.022;2023-01-30T09:54:03;99835.97;;;6.32;100.00
20455;BME280;10386;54.314;10.022;2023-01-30T09:56:36;99849.31;;;6.33;100.00
20455;BME280;10386;54.314;10.022;2023-01-30T09:59:04;99834.13;;;6.45;100.00
20455;BME280;10386;54.314;10.022;2023-01-30T10:01:47;99840.28;;;6.47;100.00
20455;BME280;10386;54.314;10.022;2023-01-30T10:04:42;99851.38;;;6.30;100.00
20455;BME280;10386;54.314;10.022;2023-01-30T10:08:51;99874.38;;;5.96;100.00
20455;BME280;10386;54.314;10.022;2023-01-30T10:10:55;99865.22;;;5.72;100.00
20455;BME280;10386;54.314;10.022;2023-01-30T10:27:30;99840.53;;;5.66;100.00
20455;BME280;10386;54.314;10.022;2023-01-30T10:30:01;99857.22;;;5.71;100.00
20455;BME280;10386;54.314;10.022;2023-01-30T10:33:02;99853.56;;;5.72;100.00
20455;BME280;10386;54.314;10.022;2023-01-30T10:35:40;99861.56;;;5.73;100.00
20455;BME280;10386;54.314;10.022;2023-01-30T10:38:18;99836.94;;;5.79;100.00
20455;BME280;10386;54.314;10.022;2023-01-30T10:46:47;99839.78;;;5.90;100.00
20455;BME280;10386;54.314;10.022;2023-01-30T10:49:40;99841.03;;;5.85;100.00
20455;BME280;10386;54.314;10.022;2023-01-30T10:58:18;99838.81;;;5.91;100.00
20455;BME280;10386;54.314;10.022;2023-01-30T11:00:59;99853.44;;;5.87;100.00
20455;BME280;10386;54.314;10.022;2023-01-30T11:03:40;99846.41;;;5.85;100.00
20455;BME280;10386;54.314;10.022;2023-01-30T11:06:15;99857.69;;;5.77;100.00
20455;BME280;10386;54.314;10.022;2023-01-30T11:08:43;99866.75;;;5.76;100.00
20455;BME280;10386;54.314;10.022;2023-01-30T11:14:05;99853.88;;;5.81;100.00
20455;BME280;10386;54.314;10.022;2023-01-30T11:19:09;99858.81;;;5.61;100.00
20455;BME280;10386;54.314;10.022;2023-01-30T11:21:52;99854.09;;;5.64;100.00
20455;BME280;10386;54.314;10.022;2023-01-30T11:24:29;99855.28;;;5.60;100.00
20455;BME280;10386;54.314;10.022;2023-01-30T11:27:15;99860.19;;;5.54;100.00
20455;BME280;10386;54.314;10.022;2023-01-30T11:29:43;99853.88;;;5.41;100.00
20455;BME280;10386;54.314;10.022;2023-01-30T11:32:12;99860.78;;;5.45;100.00
20455;BME280;10386;54.314;10.022;2023-01-30T11:34:42;99864.34;;;5.72;100.00
20455;BME280;10386;54.314;10.022;2023-01-30T11:37:17;99856.81;;;6.03;100.00
20455;BME280;10386;54.314;10.022;2023-01-30T11:39:51;99840.34;;;6.20;100.00
20455;BME280;10386;54.314;10.022;2023-01-30T11:42:29;99842.09;;;6.34;100.00
20455;BME280;10386;54.314;10.022;2023-01-30T11:44:59;99818.81;;;6.58;100.00
20455;BME280;10386;54.314;10.022;2023-01-30T11:47:50;99848.34;;;6.47;100.00
20455;BME280;10386;54.314;10.022;2023-01-30T11:50:40;99841.56;;;6.29;100.00
20455;BME280;10386;54.314;10.022;2023-01-30T11:53:22;99839.19;;;6.12;100.00
20455;BME280;10386;54.314;10.022;2023-01-30T11:55:58;99843.47;;;6.14;100.00
20455;BME280;10386;54.314;10.022;2023-01-30T11:58:35;99847.47;;;6.09;100.00
20455;BME280;10386;54.314;10.022;2023-01-30T12:01:04;99863.84;;;6.06;100.00
20455;BME280;10386;54.314;10.022;2023-01-30T12:03:41;99869.66;;;6.00;100.00
20455;BME280;10386;54.314;10.022;2023-01-30T12:06:10;99873.41;;;5.97;100.00
20455;BME280;10386;54.314;10.022;2023-01-30T12:08:39;99878.13;;;5.94;100.00
20455;BME280;10386;54.314;10.022;2023-01-30T12:14:39;99860.00;;;6.35;100.00
20455;BME280;10386;54.314;10.022;2023-01-30T12:17:15;99864.31;;;6.50;100.00
20455;BME280;10386;54.314;10.022;2023-01-30T12:23:15;99859.16;;;6.59;100.00
20455;BME280;10386;54.314;10.022;2023-01-30T12:25:57;99869.19;;;6.57;100.00
20455;BME280;10386;54.314;10.022;2023-01-30T12:31:27;99903.13;;;6.60;100.00
20455;BME280;10386;54.314;10.022;2023-01-30T12:33:55;99905.00;;;6.59;100.00
20455;BME280;10386;54.314;10.022;2023-01-30T12:38:56;99920.75;;;6.65;100.00
20455;BME280;10386;54.314;10.022;2023-01-30T12:44:52;99952.56;;;6.73;100.00
20455;BME280;10386;54.314;10.022;2023-01-30T12:55:45;100022.41;;;6.89;100.00
20455;BME280;10386;54.314;10.022;2023-01-30T13:03:48;100066.97;;;6.82;100.00
20455;BME280;10386;54.314;10.022;2023-01-30T13:11:47;100075.34;;;6.78;100.00
20455;BME280;10386;54.314;10.022;2023-01-30T13:14:26;100113.06;;;6.66;100.00
20455;BME280;10386;54.314;10.022;2023-01-30T13:20:13;100110.53;;;6.36;100.00
20455;BME280;10386;54.314;10.022;2023-01-30T13:22:52;100116.31;;;6.44;100.00
20455;BME280;10386;54.314;10.022;2023-01-30T13:28:00;100130.03;;;6.54;100.00
20455;BME280;10386;54.314;10.022;2023-01-30T13:30:30;100125.91;;;6.62;100.00
20455;BME280;10386;54.314;10.022;2023-01-30T13:33:08;100143.03;;;6.61;100.00
20455;BME280;10386;54.314;10.022;2023-01-30T13:35:44;100129.75;;;6.58;100.00
20455;BME280;10386;54.314;10.022;2023-01-30T13:38:18;100147.75;;;6.58;100.00
20455;BME280;10386;54.314;10.022;2023-01-30T13:40:47;100148.44;;;6.61;100.00
20455;BME280;10386;54.314;10.022;2023-01-30T13:43:28;100166.44;;;6.61;100.00
20455;BME280;10386;54.314;10.022;2023-01-30T13:46:01;100166.53;;;6.59;100.00
20455;BME280;10386;54.314;10.022;2023-01-30T13:48:40;100178.84;;;6.63;100.00
20455;BME280;10386;54.314;10.022;2023-01-30T13:56:44;100201.81;;;6.56;100.00
20455;BME280;10386;54.314;10.022;2023-01-30T14:02:17;100215.31;;;6.69;100.00
20455;BME280;10386;54.314;10.022;2023-01-30T14:04:46;100222.13;;;6.88;100.00
20455;BME280;10386;54.314;10.022;2023-01-30T14:07:20;100226.34;;;6.92;100.00
20455;BME280;10386;54.314;10.022;2023-01-30T14:12:50;100235.69;;;7.00;100.00
20455;BME280;10386;54.314;10.022;2023-01-30T14:15:27;100207.75;;;7.01;100.00
20455;BME280;10386;54.314;10.022;2023-01-30T14:18:04;100257.50;;;7.10;100.00
20455;BME280;10386;54.314;10.022;2023-01-30T14:20:43;100263.03;;;7.08;100.00
20455;BME280;10386;54.314;10.022;2023-01-30T14:23:32;100297.34;;;7.06;100.00
20455;BME280;10386;54.314;10.022;2023-01-30T14:26:00;100302.25;;;7.00;100.00
20455;BME280;10386;54.314;10.022;2023-01-30T14:30:56;100354.81;;;6.94;100.00
20455;BME280;10386;54.314;10.022;2023-01-30T14:33:35;100373.59;;;6.96;100.00
20455;BME280;10386;54.314;10.022;2023-01-30T14:38:40;100416.00;;;6.94;100.00
20455;BME280;10386;54.314;10.022;2023-01-30T14:43:50;100431.53;;;6.90;100.00
20455;BME280;10386;54.314;10.022;2023-01-30T14:49:20;100484.78;;;6.87;100.00
20455;BME280;10386;54.314;10.022;2023-01-30T14:51:50;100475.84;;;6.86;100.00
20455;BME280;10386;54.314;10.022;2023-01-30T14:54:23;100498.88;;;6.92;100.00
20455;BME280;10386;54.314;10.022;2023-01-30T14:57:27;100502.53;;;6.91;100.00
20455;BME280;10386;54.314;10.022;2023-01-30T15:00:14;100520.63;;;6.89;100.00
20455;BME280;10386;54.314;10.022;2023-01-30T15:02:54;100533.66;;;6.82;100.00
20455;BME280;10386;54.314;10.022;2023-01-30T15:05:28;100523.25;;;6.90;100.00
20455;BME280;10386;54.314;10.022;2023-01-30T15:08:18;100537.78;;;6.88;100.00
20455;BME280;10386;54.314;10.022;2023-01-30T15:19:44;100592.38;;;6.78;100.00
20455;BME280;10386;54.314;10.022;2023-01-30T15:22:23;100599.69;;;6.76;100.00
20455;BME280;10386;54.314;10.022;2023-01-30T15:31:30;100634.44;;;6.66;100.00
20455;BME280;10386;54.314;10.022;2023-01-30T15:33:51;100653.75;;;6.59;100.00